sensor_id;sensor_type;location;lat;lon;timestamp;pressure;altitude;pressure_sealevel;temperature;humidity
19510;BME280;9896;42.486;26.506;2023-04-05T00:01:12;99029.50;;;6.68;98.34
19510;BME280;9896;42.486;26.506;2023-04-05T00:03:38;99035.25;;;6.71;98.13
19510;BME280;9896;42.486;26.506;2023-04-05T00:06:04;99039.97;;;6.76;100.00
19510;BME280;9896;42.486;26.506;2023-04-05T00:08:30;99034.44;;;6.71;100.00
19510;BME280;9896;42.486;26.506;2023-04-05T00:10:56;99034.63;;;6.63;99.80
19510;BME280;9896;42.486;26.506;2023-04-05T00:13:21;99033.38;;;6.65;99.52
19510;BME280;9896;42.486;26.506;2023-04-05T00:15:48;99027.41;;;6.57;100.00
19510;BME280;9896;42.486;26.506;2023-04-05T00:18:13;99023.78;;;6.71;99.47
19510;BME280;9896;42.486;26.506;2023-04-05T00:20:49;99020.50;;;6.75;99.63
19510;BME280;9896;42.486;26.506;2023-04-05T00:23:15;99024.56;;;6.51;100.00
19510;BME280;9896;42.486;26.506;2023-04-05T00:25:43;99019.59;;;6.35;100.00
19510;BME280;9896;42.486;26.506;2023-04-05T00:28:09;99041.56;;;6.50;100.00
19510;BME280;9896;42.486;26.506;2023-04-05T00:30:34;99040.72;;;6.50;100.00
19510;BME280;9896;42.486;26.506;2023-04-05T00:33:00;99040.50;;;6.45;100.00
19510;BME280;9896;42.486;26.506;2023-04-05T00:35:27;99046.69;;;6.52;100.00
19510;BME280;9896;42.486;26.506;2023-04-05T00:37:52;99048.91;;;6.35;100.00
19510;BME280;9896;42.486;26.506;2023-04-05T00:40:18;99033.91;;;6.28;100.00
19510;BME280;9896;42.486;26.506;2023-04-05T00:42:43;99045.41;;;6.35;100.00
19510;BME280;9896;42.486;26.506;2023-04-05T00:45:09;99051.50;;;6.22;99.70
19510;BME280;9896;42.486;26.506;2023-04-05T00:47:35;99055.63;;;6.31;100.00
19510;BME280;9896;42.486;26.506;2023-04-05T00:50:01;99056.06;;;6.35;100.00
19510;BME280;9896;42.486;26.506;2023-04-05T00:52:28;99059.38;;;6.43;100.00
19510;BME280;9896;42.486;26.506;2023-04-05T00:54:55;99066.06;;;6.33;100.00
19510;BME280;9896;42.486;26.506;2023-04-05T00:57:21;99063.00;;;6.36;100.00
19510;BME280;9896;42.486;26.506;2023-04-05T00:59:49;99067.09;;;6.32;100.00
19510;BME280;9896;42.486;26.506;2023-04-05T01:02:31;99069.97;;;6.37;100.00
19510;BME280;9896;42.486;26.506;2023-04-05T01:05:00;99067.72;;;6.34;100.00
19510;BME280;9896;42.486;26.506;2023-04-05T01:09:59;99067.56;;;6.48;100.00
19510;BME280;9896;42.486;26.506;2023-04-05T01:12:31;99069.97;;;6.37;100.00
19510;BME280;9896;42.486;26.506;2023-04-05T01:14:58;99067.53;;;6.42;100.00
19510;BME280;9896;42.486;26.506;2023-04-05T01:17:25;99077.56;;;6.40;100.00
19510;BME280;9896;42.486;26.506;2023-04-05T01:20:03;99073.44;;;6.31;100.00
19510;BME280;9896;42.486;26.506;2023-04-05T01:36:29;99080.06;;;6.48;98.50
19510;BME280;9896;42.486;26.506;2023-04-05T01:38:56;99075.53;;;6.42;98.82
19510;BME280;9896;42.486;26.506;2023-04-05T01:41:23;99081.84;;;6.34;100.00
19510;BME280;9896;42.486;26.506;2023-04-05T01:43:50;99077.72;;;6.32;100.00
19510;BME280;9896;42.486;26.506;2023-04-05T01:46:15;99088.19;;;6.33;100.00
19510;BME280;9896;42.486;26.506;2023-04-05T01:48:41;99083.84;;;6.19;100.00
19510;BME280;9896;42.486;26.506;2023-04-05T01:51:06;99090.31;;;6.03;100.00
19510;BME280;9896;42.486;26.506;2023-04-05T01:53:32;99097.28;;;6.04;100.00
19510;BME280;9896;42.486;26.506;2023-04-05T01:56:00;99102.19;;;6.07;100.00
19510;BME280;9896;42.486;26.506;2023-04-05T01:58:26;99095.31;;;5.85;100.00
19510;BME280;9896;42.486;26.506;2023-04-05T02:00:56;99101.56;;;5.99;100.00
19510;BME280;9896;42.486;26.506;2023-04-05T02:03:22;99094.81;;;6.03;100.00
19510;BME280;9896;42.486;26.506;2023-04-05T02:05:48;99092.91;;;5.90;100.00
19510;BME280;9896;42.486;26.506;2023-04-05T02:08:14;99097.09;;;5.78;100.00
19510;BME280;9896;42.486;26.506;2023-04-05T02:10:40;99091.31;;;5.68;100.00
19510;BME280;9896;42.486;26.506;2023-04-05T02:13:06;99094.38;;;5.72;100.00
19510;BME280;9896;42.486;26.506;2023-04-05T02:15:31;99096.63;;;5.68;100.00
19510;BME280;9896;42.486;26.506;2023-04-05T02:17:58;99098.06;;;5.71;100.00
19510;BME280;9896;42.486;26.506;2023-04-05T02:20:27;99108.84;;;5.62;100.00
19510;BME280;9896;42.486;26.506;2023-04-05T02:22:53;99106.25;;;5.69;100.00
19510;BME280;9896;42.486;26.506;2023-04-05T02:25:19;99115.41;;;5.67;100.00
19510;BME280;9896;42.486;26.506;2023-04-05T02:27:45;99120.28;;;5.56;100.00
19510;BME280;9896;42.486;26.506;2023-04-05T02:30:11;99120.75;;;5.67;100.00
19510;BME280;9896;42.486;26.506;2023-04-05T02:32:38;99115.53;;;5.52;100.00
19510;BME280;9896;42.486;26.506;2023-04-05T02:35:07;99132.75;;;5.56;100.00
19510;BME280;9896;42.486;26.506;2023-04-05T02:37:33;99137.75;;;5.44;100.00
19510;BME280;9896;42.486;26.506;2023-04-05T02:39:58;99141.66;;;5.42;100.00
19510;BME280;9896;42.486;26.506;2023-04-05T02:42:24;99138.59;;;5.45;100.00
19510;BME280;9896;42.486;26.506;2023-04-05T02:44:50;99126.41;;;5.29;100.00
19510;BME280;9896;42.486;26.506;2023-04-05T02:47:16;99138.50;;;5.38;100.00
19510;BME280;9896;42.486;26.506;2023-04-05T02:49:46;99120.94;;;5.37;100.00
19510;BME280;9896;42.486;26.506;2023-04-05T02:52:12;99130.75;;;5.37;95.71
19510;BME280;9896;42.486;26.506;2023-04-05T02:54:37;99129.94;;;5.36;94.51
19510;BME280;9896;42.486;26.506;2023-04-05T02:57:03;99137.22;;;5.28;94.48
19510;BME280;9896;42.486;26.506;2023-04-05T02:59:28;99137.47;;;5.11;95.56
19510;BME280;9896;42.486;26.506;2023-04-05T03:01:54;99152.44;;;4.98;97.13
19510;BME280;9896;42.486;26.506;2023-04-05T03:04:19;99153.53;;;5.03;98.64
19510;BME280;9896;42.486;26.506;2023-04-05T03:06:45;99145.16;;;4.85;98.31
19510;BME280;9896;42.486;26.506;2023-04-05T03:09:13;99163.31;;;4.82;99.44
19510;BME280;9896;42.486;26.506;2023-04-05T03:11:39;99153.97;;;4.86;100.00
19510;BME280;9896;42.486;26.506;2023-04-05T03:14:04;99164.91;;;4.97;99.84
19510;BME280;9896;42.486;26.506;2023-04-05T03:16:30;99155.22;;;4.90;100.00
19510;BME280;9896;42.486;26.506;2023-04-05T03:18:55;99162.13;;;4.84;100.00
19510;BME280;9896;42.486;26.506;2023-04-05T03:21:21;99156.69;;;4.92;100.00
19510;BME280;9896;42.486;26.506;2023-04-05T03:23:47;99157.44;;;4.86;100.00
19510;BME280;9896;42.486;26.506;2023-04-05T03:26:12;99153.44;;;4.76;100.00
19510;BME280;9896;42.486;26.506;2023-04-05T03:28:38;99142.28;;;4.80;100.00
19510;BME280;9896;42.486;26.506;2023-04-05T03:31:09;99162.50;;;5.02;99.73
19510;BME280;9896;42.486;26.506;2023-04-05T03:33:35;99157.28;;;4.73;100.00
19510;BME280;9896;42.486;26.506;2023-04-05T03:36:00;99147.59;;;4.65;100.00
19510;BME280;9896;42.486;26.506;2023-04-05T03:38:26;99153.94;;;4.64;100.00
19510;BME280;9896;42.486;26.506;2023-04-05T03:40:52;99154.13;;;4.63;100.00
19510;BME280;9896;42.486;26.506;2023-04-05T03:43:18;99169.97;;;4.56;100.00
19510;BME280;9896;42.486;26.506;2023-04-05T03:45:44;99172.63;;;4.56;100.00
19510;BME280;9896;42.486;26.506;2023-04-05T03:48:09;99183.06;;;4.58;100.00
19510;BME280;9896;42.486;26.506;2023-04-05T03:50:35;99188.00;;;4.46;100.00
19510;BME280;9896;42.486;26.506;2023-04-05T03:53:00;99186.72;;;4.42;100.00
19510;BME280;9896;42.486;26.506;2023-04-05T03:55:26;99196.97;;;4.45;100.00
19510;BME280;9896;42.486;26.506;2023-04-05T03:57:52;99206.13;;;4.28;100.00
19510;BME280;9896;42.486;26.506;2023-04-05T04:00:18;99198.06;;;4.36;100.00
19510;BME280;9896;42.486;26.506;2023-04-05T04:02:48;99198.09;;;4.51;100.00
19510;BME280;9896;42.486;26.506;2023-04-05T04:05:15;99197.97;;;4.59;100.00
19510;BME280;9896;42.486;26.506;2023-04-05T04:07:41;99202.38;;;4.37;100.00
19510;BME280;9896;42.486;26.506;2023-04-05T04:10:09;99204.78;;;4.47;100.00
19510;BME280;9896;42.486;26.506;2023-04-05T04:12:35;99210.63;;;4.28;100.00
19510;BME280;9896;42.486;26.506;2023-04-05T04:15:01;99210.81;;;4.26;100.00
19510;BME280;9896;42.486;26.506;2023-04-05T04:17:32;99208.06;;;4.34;100.00
19510;BME280;9896;42.486;26.506;2023-04-05T04:19:58;99209.44;;;4.15;100.00
19510;BME280;9896;42.486;26.506;2023-04-05T04:22:24;99215.22;;;4.19;100.00
19510;BME280;9896;42.486;26.506;2023-04-05T04:25:04;99213.91;;;4.30;100.00
19510;BME280;9896;42.486;26.506;2023-04-05T04:27:31;99216.19;;;4.33;100.00
19510;BME280;9896;42.486;26.506;2023-04-05T04:29:56;99208.69;;;4.36;100.00
19510;BME280;9896;42.486;26.506;2023-04-05T04:32:29;99209.34;;;4.38;100.00
19510;BME280;9896;42.486;26.506;2023-04-05T04:35:14;99206.88;;;4.37;100.00
19510;BME280;9896;42.486;26.506;2023-04-05T04:37:54;99219.59;;;4.56;100.00
19510;BME280;9896;42.486;26.506;2023-04-05T04:40:23;99218.50;;;4.50;100.00
19510;BME280;9896;42.486;26.506;2023-04-05T04:42:50;99204.22;;;4.51;100.00
19510;BME280;9896;42.486;26.506;2023-04-05T04:45:17;99228.84;;;4.60;100.00
19510;BME280;9896;42.486;26.506;2023-04-05T04:47:47;99225.53;;;4.73;100.00
19510;BME280;9896;42.486;26.506;2023-04-05T04:50:13;99226.19;;;4.60;100.00
19510;BME280;9896;42.486;26.506;2023-04-05T04:52:40;99226.59;;;4.78;100.00
19510;BME280;9896;42.486;26.506;2023-04-05T04:55:10;99227.47;;;4.64;100.00
19510;BME280;9896;42.486;26.506;2023-04-05T04:57:42;99227.66;;;4.48;100.00
19510;BME280;9896;42.486;26.506;2023-04-05T05:00:08;99227.06;;;4.52;100.00
19510;BME280;9896;42.486;26.506;2023-04-05T05:02:38;99226.72;;;4.55;100.00
19510;BME280;9896;42.486;26.506;2023-04-05T05:05:05;99230.66;;;4.59;100.00
19510;BME280;9896;42.486;26.506;2023-04-05T05:07:32;99236.69;;;4.68;100.00
19510;BME280;9896;42.486;26.506;2023-04-05T05:09:57;99236.59;;;4.61;100.00
19510;BME280;9896;42.486;26.506;2023-04-05T05:12:23;99230.75;;;4.81;100.00
19510;BME280;9896;42.486;26.506;2023-04-05T05:14:51;99233.41;;;5.02;100.00
19510;BME280;9896;42.486;26.506;2023-04-05T05:17:16;99232.81;;;4.85;100.00
19510;BME280;9896;42.486;26.506;2023-04-05T05:19:41;99236.28;;;5.00;100.00
19510;BME280;9896;42.486;26.506;2023-04-05T05:22:07;99234.56;;;4.93;100.00
19510;BME280;9896;42.486;26.506;2023-04-05T05:24:32;99241.16;;;4.97;100.00
19510;BME280;9896;42.486;26.506;2023-04-05T05:26:58;99247.34;;;5.04;100.00
19510;BME280;9896;42.486;26.506;2023-04-05T05:29:23;99244.72;;;5.25;100.00
19510;BME280;9896;42.486;26.506;2023-04-05T05:31:49;99254.72;;;5.23;100.00
19510;BME280;9896;42.486;26.506;2023-04-05T05:34:14;99259.50;;;5.49;100.00
19510;BME280;9896;42.486;26.506;2023-04-05T05:36:41;99252.09;;;5.44;100.00
19510;BME280;9896;42.486;26.506;2023-04-05T05:39:06;99266.78;;;5.83;99.00
19510;BME280;9896;42.486;26.506;2023-04-05T05:41:32;99263.91;;;5.84;98.58
19510;BME280;9896;42.486;26.506;2023-04-05T05:43:58;99264.44;;;5.73;99.32
19510;BME280;9896;42.486;26.506;2023-04-05T05:46:24;99239.78;;;6.07;97.51
19510;BME280;9896;42.486;26.506;2023-04-05T05:48:50;99252.94;;;6.15;93.75
19510;BME280;9896;42.486;26.506;2023-04-05T05:51:16;99263.47;;;6.30;95.41
19510;BME280;9896;42.486;26.506;2023-04-05T05:53:43;99264.47;;;6.22;93.68
19510;BME280;9896;42.486;26.506;2023-04-05T05:56:09;99265.13;;;6.31;91.67
19510;BME280;9896;42.486;26.506;2023-04-05T05:58:35;99262.19;;;6.19;91.05
19510;BME280;9896;42.486;26.506;2023-04-05T06:01:01;99268.84;;;6.08;91.98
19510;BME280;9896;42.486;26.506;2023-04-05T06:03:28;99273.00;;;5.90;94.10
19510;BME280;9896;42.486;26.506;2023-04-05T06:05:55;99274.56;;;6.05;94.03
19510;BME280;9896;42.486;26.506;2023-04-05T06:08:21;99279.44;;;6.02;94.35
19510;BME280;9896;42.486;26.506;2023-04-05T06:10:48;99277.38;;;5.97;94.43
19510;BME280;9896;42.486;26.506;2023-04-05T06:13:13;99277.09;;;6.14;93.21
19510;BME280;9896;42.486;26.506;2023-04-05T06:15:39;99285.78;;;6.29;93.55
19510;BME280;9896;42.486;26.506;2023-04-05T06:18:04;99285.19;;;6.61;91.59
19510;BME280;9896;42.486;26.506;2023-04-05T06:20:30;99280.41;;;6.50;90.52
19510;BME280;9896;42.486;26.506;2023-04-05T06:22:55;99280.75;;;6.68;88.30
19510;BME280;9896;42.486;26.506;2023-04-05T06:25:20;99269.91;;;6.76;86.29
19510;BME280;9896;42.486;26.506;2023-04-05T06:27:46;99280.59;;;6.83;84.48
19510;BME280;9896;42.486;26.506;2023-04-05T06:30:12;99295.41;;;6.92;84.68
19510;BME280;9896;42.486;26.506;2023-04-05T06:32:37;99282.16;;;7.12;83.75
19510;BME280;9896;42.486;26.506;2023-04-05T06:35:03;99286.56;;;7.32;85.65
19510;BME280;9896;42.486;26.506;2023-04-05T06:37:29;99285.78;;;7.52;84.22
19510;BME280;9896;42.486;26.506;2023-04-05T06:39:55;99281.25;;;7.45;81.51
19510;BME280;9896;42.486;26.506;2023-04-05T06:42:20;99293.31;;;7.28;81.32
19510;BME280;9896;42.486;26.506;2023-04-05T06:44:46;99297.03;;;7.40;82.25
19510;BME280;9896;42.486;26.506;2023-04-05T06:47:11;99295.03;;;7.62;83.86
19510;BME280;9896;42.486;26.506;2023-04-05T06:49:37;99293.41;;;7.74;83.13
19510;BME280;9896;42.486;26.506;2023-04-05T06:52:02;99285.00;;;7.84;83.23
19510;BME280;9896;42.486;26.506;2023-04-05T06:54:32;99302.69;;;7.78;82.96
19510;BME280;9896;42.486;26.506;2023-04-05T06:56:57;99306.56;;;7.76;84.20
19510;BME280;9896;42.486;26.506;2023-04-05T06:59:22;99305.16;;;7.86;84.43
19510;BME280;9896;42.486;26.506;2023-04-05T07:01:48;99305.72;;;7.69;82.82
19510;BME280;9896;42.486;26.506;2023-04-05T07:04:13;99303.09;;;8.02;81.32
19510;BME280;9896;42.486;26.506;2023-04-05T07:06:39;99307.63;;;8.21;80.54
19510;BME280;9896;42.486;26.506;2023-04-05T07:09:05;99301.47;;;8.47;79.62
19510;BME280;9896;42.486;26.506;2023-04-05T07:11:30;99317.88;;;8.70;78.00
19510;BME280;9896;42.486;26.506;2023-04-05T07:13:58;99320.34;;;8.65;77.99
19510;BME280;9896;42.486;26.506;2023-04-05T07:16:24;99314.56;;;8.81;77.98
19510;BME280;9896;42.486;26.506;2023-04-05T07:18:49;99319.56;;;9.28;75.55
19510;BME280;9896;42.486;26.506;2023-04-05T07:21:15;99327.88;;;9.01;76.35
19510;BME280;9896;42.486;26.506;2023-04-05T07:23:41;99326.06;;;9.46;75.35
19510;BME280;9896;42.486;26.506;2023-04-05T07:26:06;99326.84;;;9.02;74.93
19510;BME280;9896;42.486;26.506;2023-04-05T07:28:33;99323.19;;;8.90;75.26
19510;BME280;9896;42.486;26.506;2023-04-05T07:31:00;99334.06;;;9.52;74.67
19510;BME280;9896;42.486;26.506;2023-04-05T07:33:26;99344.53;;;9.60;74.26
19510;BME280;9896;42.486;26.506;2023-04-05T07:35:52;99341.00;;;9.66;72.79
19510;BME280;9896;42.486;26.506;2023-04-05T07:38:18;99331.94;;;9.67;72.77
19510;BME280;9896;42.486;26.506;2023-04-05T07:40:44;99339.19;;;9.54;72.86
19510;BME280;9896;42.486;26.506;2023-04-05T07:43:09;99335.94;;;9.83;71.34
19510;BME280;9896;42.486;26.506;2023-04-05T07:45:35;99337.53;;;9.97;72.06
19510;BME280;9896;42.486;26.506;2023-04-05T07:48:00;99337.06;;;10.38;69.50
19510;BME280;9896;42.486;26.506;2023-04-05T07:50:26;99336.97;;;10.20;69.84
19510;BME280;9896;42.486;26.506;2023-04-05T07:52:51;99332.03;;;9.48;72.82
19510;BME280;9896;42.486;26.506;2023-04-05T07:55:17;99342.59;;;9.29;73.53
19510;BME280;9896;42.486;26.506;2023-04-05T07:57:42;99339.28;;;9.41;77.77
19510;BME280;9896;42.486;26.506;2023-04-05T08:00:08;99342.06;;;9.08;79.96
19510;BME280;9896;42.486;26.506;2023-04-05T08:02:37;99336.09;;;9.12;76.00
19510;BME280;9896;42.486;26.506;2023-04-05T08:05:02;99341.31;;;8.88;78.08
19510;BME280;9896;42.486;26.506;2023-04-05T08:07:28;99343.19;;;9.38;78.23
19510;BME280;9896;42.486;26.506;2023-04-05T08:09:53;99355.59;;;9.70;76.02
19510;BME280;9896;42.486;26.506;2023-04-05T08:12:22;99343.63;;;9.35;75.83
19510;BME280;9896;42.486;26.506;2023-04-05T08:14:48;99344.34;;;8.98;77.04
19510;BME280;9896;42.486;26.506;2023-04-05T08:17:14;99350.56;;;9.43;77.50
19510;BME280;9896;42.486;26.506;2023-04-05T08:19:40;99355.09;;;9.49;79.14
19510;BME280;9896;42.486;26.506;2023-04-05T08:22:05;99360.53;;;9.29;81.24
19510;BME280;9896;42.486;26.506;2023-04-05T08:24:31;99353.00;;;9.51;80.46
19510;BME280;9896;42.486;26.506;2023-04-05T08:26:57;99346.25;;;9.86;78.85
19510;BME280;9896;42.486;26.506;2023-04-05T08:29:22;99355.44;;;9.97;78.29
19510;BME280;9896;42.486;26.506;2023-04-05T08:31:48;99364.53;;;9.51;78.89
19510;BME280;9896;42.486;26.506;2023-04-05T08:34:14;99358.06;;;9.72;79.75
19510;BME280;9896;42.486;26.506;2023-04-05T08:36:39;99361.91;;;9.82;79.92
19510;BME280;9896;42.486;26.506;2023-04-05T08:39:05;99359.31;;;9.69;80.75
19510;BME280;9896;42.486;26.506;2023-04-05T08:41:48;99357.16;;;10.22;77.64
19510;BME280;9896;42.486;26.506;2023-04-05T08:44:14;99359.78;;;9.98;78.92
19510;BME280;9896;42.486;26.506;2023-04-05T08:46:42;99375.19;;;10.02;78.24
19510;BME280;9896;42.486;26.506;2023-04-05T08:49:08;99362.94;;;10.19;77.77
19510;BME280;9896;42.486;26.506;2023-04-05T08:51:36;99365.88;;;9.73;79.21
19510;BME280;9896;42.486;26.506;2023-04-05T08:54:05;99367.50;;;9.81;79.46
19510;BME280;9896;42.486;26.506;2023-04-05T08:56:32;99371.22;;;10.18;78.71
19510;BME280;9896;42.486;26.506;2023-04-05T08:59:03;99363.66;;;10.33;77.78
19510;BME280;9896;42.486;26.506;2023-04-05T09:01:30;99369.25;;;10.32;77.56
19510;BME280;9896;42.486;26.506;2023-04-05T09:03:59;99370.13;;;10.25;77.39
19510;BME280;9896;42.486;26.506;2023-04-05T09:06:25;99374.78;;;10.37;78.27
19510;BME280;9896;42.486;26.506;2023-04-05T09:08:55;99370.19;;;10.44;78.75
19510;BME280;9896;42.486;26.506;2023-04-05T09:11:21;99370.97;;;10.94;77.94
19510;BME280;9896;42.486;26.506;2023-04-05T09:13:47;99376.34;;;10.44;77.16
19510;BME280;9896;42.486;26.506;2023-04-05T09:16:13;99378.47;;;10.85;75.50
19510;BME280;9896;42.486;26.506;2023-04-05T09:18:40;99366.19;;;10.53;74.70
19510;BME280;9896;42.486;26.506;2023-04-05T09:21:06;99366.47;;;10.69;74.70
19510;BME280;9896;42.486;26.506;2023-04-05T09:23:36;99381.16;;;10.36;74.05
19510;BME280;9896;42.486;26.506;2023-04-05T09:26:19;99381.50;;;10.95;73.08
19510;BME280;9896;42.486;26.506;2023-04-05T09:28:46;99376.41;;;10.87;73.04
19510;BME280;9896;42.486;26.506;2023-04-05T09:31:34;99369.78;;;10.90;71.50
19510;BME280;9896;42.486;26.506;2023-04-05T09:34:04;99366.59;;;11.17;71.90
19510;BME280;9896;42.486;26.506;2023-04-05T09:36:33;99376.88;;;11.02;73.45
19510;BME280;9896;42.486;26.506;2023-04-05T09:39:06;99368.41;;;11.24;72.26
19510;BME280;9896;42.486;26.506;2023-04-05T09:41:32;99370.19;;;11.96;69.46
19510;BME280;9896;42.486;26.506;2023-04-05T09:43:58;99372.38;;;11.87;69.35
19510;BME280;9896;42.486;26.506;2023-04-05T09:46:29;99366.47;;;11.97;68.64
19510;BME280;9896;42.486;26.506;2023-04-05T09:48:55;99371.97;;;11.36;69.86
19510;BME280;9896;42.486;26.506;2023-04-05T09:51:22;99379.88;;;11.12;71.86
19510;BME280;9896;42.486;26.506;2023-04-05T09:54:06;99375.09;;;11.14;68.33
19510;BME280;9896;42.486;26.506;2023-04-05T09:56:34;99376.00;;;11.08;68.43
19510;BME280;9896;42.486;26.506;2023-04-05T09:59:10;99381.72;;;10.94;69.07
19510;BME280;9896;42.486;26.506;2023-04-05T10:01:42;99377.81;;;10.90;70.19
19510;BME280;9896;42.486;26.506;2023-04-05T10:04:07;99383.72;;;10.55;71.74
19510;BME280;9896;42.486;26.506;2023-04-05T10:06:45;99381.91;;;10.74;71.59
19510;BME280;9896;42.486;26.506;2023-04-05T10:09:11;99374.97;;;10.85;71.80
19510;BME280;9896;42.486;26.506;2023-04-05T10:11:41;99379.75;;;10.83;70.20
19510;BME280;9896;42.486;26.506;2023-04-05T10:14:08;99378.50;;;10.60;71.22
19510;BME280;9896;42.486;26.506;2023-04-05T10:16:52;99372.84;;;10.93;69.81
19510;BME280;9896;42.486;26.506;2023-04-05T10:19:36;99380.13;;;10.86;68.52
19510;BME280;9896;42.486;26.506;2023-04-05T10:22:13;99374.88;;;10.73;68.27
19510;BME280;9896;42.486;26.506;2023-04-05T10:24:45;99376.81;;;10.66;68.61
19510;BME280;9896;42.486;26.506;2023-04-05T10:27:21;99379.31;;;10.61;69.38
19510;BME280;9896;42.486;26.506;2023-04-05T10:30:01;99388.94;;;10.68;69.18
19510;BME280;9896;42.486;26.506;2023-04-05T10:35:30;99385.84;;;10.71;68.77
19510;BME280;9896;42.486;26.506;2023-04-05T10:40:53;99386.50;;;10.67;69.91
19510;BME280;9896;42.486;26.506;2023-04-05T10:43:22;99384.56;;;10.74;69.87
19510;BME280;9896;42.486;26.506;2023-04-05T10:45:51;99382.28;;;10.78;69.91
19510;BME280;9896;42.486;26.506;2023-04-05T10:48:27;99375.59;;;10.87;69.23
19510;BME280;9896;42.486;26.506;2023-04-05T10:50:56;99379.66;;;11.32;66.66
19510;BME280;9896;42.486;26.506;2023-04-05T10:53:24;99382.63;;;11.42;67.38
19510;BME280;9896;42.486;26.506;2023-04-05T10:55:50;99374.66;;;11.36;67.44
19510;BME280;9896;42.486;26.506;2023-04-05T10:58:17;99378.16;;;11.36;67.05
19510;BME280;9896;42.486;26.506;2023-04-05T11:00:45;99377.19;;;11.12;68.63
19510;BME280;9896;42.486;26.506;2023-04-05T11:09:18;99372.25;;;11.64;68.68
19510;BME280;9896;42.486;26.506;2023-04-05T11:11:48;99372.47;;;11.81;68.12
19510;BME280;9896;42.486;26.506;2023-04-05T11:14:22;99357.47;;;10.82;72.27
19510;BME280;9896;42.486;26.506;2023-04-05T11:16:51;99357.88;;;10.61;74.30
19510;BME280;9896;42.486;26.506;2023-04-05T11:19:19;99366.63;;;10.50;74.00
19510;BME280;9896;42.486;26.506;2023-04-05T11:21:45;99367.66;;;10.73;74.33
19510;BME280;9896;42.486;26.506;2023-04-05T11:24:12;99356.41;;;10.40;74.63
19510;BME280;9896;42.486;26.506;2023-04-05T11:29:05;99352.19;;;10.51;75.14
19510;BME280;9896;42.486;26.506;2023-04-05T11:31:31;99370.34;;;10.49;74.72
19510;BME280;9896;42.486;26.506;2023-04-05T11:34:04;99362.84;;;10.82;74.26
19510;BME280;9896;42.486;26.506;2023-04-05T11:36:46;99374.09;;;10.91;72.37
19510;BME280;9896;42.486;26.506;2023-04-05T11:44:13;99374.34;;;11.07;71.95
19510;BME280;9896;42.486;26.506;2023-04-05T11:46:44;99358.31;;;11.01;71.52
19510;BME280;9896;42.486;26.506;2023-04-05T11:49:11;99368.28;;;10.94;71.94
19510;BME280;9896;42.486;26.506;2023-04-05T11:51:38;99369.88;;;11.01;72.13
19510;BME280;9896;42.486;26.506;2023-04-05T11:54:06;99371.00;;;10.69;72.78
19510;BME280;9896;42.486;26.506;2023-04-05T11:56:32;99385.28;;;10.88;72.15
19510;BME280;9896;42.486;26.506;2023-04-05T11:58:58;99387.72;;;10.89;70.53
19510;BME280;9896;42.486;26.506;2023-04-05T12:01:23;99377.81;;;10.90;70.38
19510;BME280;9896;42.486;26.506;2023-04-05T12:03:56;99377.75;;;10.96;69.47
19510;BME280;9896;42.486;26.506;2023-04-05T12:06:22;99376.06;;;11.02;69.78
19510;BME280;9896;42.486;26.506;2023-04-05T12:08:48;99383.66;;;11.05;69.14
19510;BME280;9896;42.486;26.506;2023-04-05T12:11:36;99369.78;;;10.90;69.86
19510;BME280;9896;42.486;26.506;2023-04-05T12:14:05;99371.34;;;10.97;68.24
19510;BME280;9896;42.486;26.506;2023-04-05T12:16:30;99366.97;;;11.03;69.83
19510;BME280;9896;42.486;26.506;2023-04-05T12:18:57;99380.50;;;10.90;68.93
19510;BME280;9896;42.486;26.506;2023-04-05T12:21:23;99373.22;;;10.97;70.03
19510;BME280;9896;42.486;26.506;2023-04-05T12:23:50;99380.22;;;10.98;69.31
19510;BME280;9896;42.486;26.506;2023-04-05T12:26:16;99362.25;;;10.98;69.85
19510;BME280;9896;42.486;26.506;2023-04-05T12:28:56;99369.81;;;11.08;68.67
19510;BME280;9896;42.486;26.506;2023-04-05T12:31:37;99370.94;;;11.00;68.17
19510;BME280;9896;42.486;26.506;2023-04-05T12:34:04;99363.59;;;10.89;68.33
19510;BME280;9896;42.486;26.506;2023-04-05T12:36:30;99369.81;;;10.65;69.39
19510;BME280;9896;42.486;26.506;2023-04-05T12:38:59;99362.75;;;10.70;67.05
19510;BME280;9896;42.486;26.506;2023-04-05T12:41:29;99364.22;;;10.91;67.19
19510;BME280;9896;42.486;26.506;2023-04-05T12:43:55;99364.22;;;11.28;66.46
19510;BME280;9896;42.486;26.506;2023-04-05T12:46:45;99355.72;;;11.31;65.25
19510;BME280;9896;42.486;26.506;2023-04-05T12:49:13;99365.19;;;11.15;67.34
19510;BME280;9896;42.486;26.506;2023-04-05T12:51:46;99367.41;;;11.18;67.41
19510;BME280;9896;42.486;26.506;2023-04-05T12:54:22;99362.72;;;11.32;67.67
19510;BME280;9896;42.486;26.506;2023-04-05T12:56:52;99362.41;;;11.22;68.21
19510;BME280;9896;42.486;26.506;2023-04-05T12:59:19;99361.44;;;11.34;66.67
19510;BME280;9896;42.486;26.506;2023-04-05T13:01:44;99362.06;;;11.18;66.73
19510;BME280;9896;42.486;26.506;2023-04-05T13:04:10;99354.59;;;11.02;66.07
19510;BME280;9896;42.486;26.506;2023-04-05T13:06:35;99359.13;;;10.83;67.45
19510;BME280;9896;42.486;26.506;2023-04-05T13:09:01;99355.09;;;10.92;66.92
19510;BME280;9896;42.486;26.506;2023-04-05T13:11:26;99355.78;;;11.06;66.90
19510;BME280;9896;42.486;26.506;2023-04-05T13:13:52;99361.22;;;10.99;68.00
19510;BME280;9896;42.486;26.506;2023-04-05T13:16:19;99352.34;;;10.99;66.69
19510;BME280;9896;42.486;26.506;2023-04-05T13:18:44;99361.00;;;11.01;66.96
19510;BME280;9896;42.486;26.506;2023-04-05T13:21:10;99358.31;;;10.83;67.45
19510;BME280;9896;42.486;26.506;2023-04-05T13:23:37;99362.22;;;10.80;69.26
19510;BME280;9896;42.486;26.506;2023-04-05T13:26:03;99350.78;;;10.91;68.54
19510;BME280;9896;42.486;26.506;2023-04-05T13:28:29;99347.88;;;10.93;67.55
19510;BME280;9896;42.486;26.506;2023-04-05T13:30:55;99355.16;;;10.67;69.03
19510;BME280;9896;42.486;26.506;2023-04-05T13:33:20;99371.75;;;10.76;69.85
19510;BME280;9896;42.486;26.506;2023-04-05T13:35:46;99363.72;;;10.76;69.73
19510;BME280;9896;42.486;26.506;2023-04-05T13:38:11;99371.44;;;10.66;71.07
19510;BME280;9896;42.486;26.506;2023-04-05T13:40:37;99367.56;;;10.62;70.80